EGMC/SEN METAR and TAF weather

Enter ICAO airport designator
Station Type Date Time Source
EGMC METAR 2018/07/21 11:20 UTC NOAA

EGMC 211120Z VRB03KT 9999 SCT046 25/13 Q1013


Station Type Date Time Source
EGMC Decoded METAR 2018/07/21 11:20 UTC NOAA

Southend-On-Sea , United Kingdom (EGMC) 51-34N 000-42E
Jul 21, 2018 - 07:20 AM EDT / 2018.07.21 1120 UTC
Wind: Variable at 3 MPH (3 KT):0
Visibility: greater than 7 mile(s):0
Sky conditions: partly cloudy
Temperature: 77 F (25 C)
Dew Point: 55 F (13 C)
Relative Humidity: 47%
Pressure (altimeter): 29.91 in. Hg (1013 hPa)
ob: EGMC 211120Z VRB03KT 9999 SCT046 25/13 Q1013
cycle: 11

Station Type Date Time Source
EGMC TAF 2016/04/18 18:00 UTC NOAA

TAF EGMC 181658Z 1818/1903 28008KT 9999 BKN045


Example: see airport list